»·PEaware :: WAT169 KLAS-KSNA

WAT169 :: KLAS-KSNA

FLIGHT INFORMATION

Flight Status: Arrived
Operator: Unknown
More flights by this operator :: More flights under this callsign
Pilot: Marty P. (27464)
Aircraft: BOEING 737-800
(B738)
More flights by this aircraft type
Origin: KLAS McCarran Intl
United States
Destination: KSNA John Wayne-Orange Co
United States
More flights between these airports :: More routes between these airports
Route: +BOACH8 WHIGG FEYLA DSNEE4
File this flight plan on PilotEdge
Remarks:
Altitude:
(Current/Filed)
28,000ft
Speed:
(Current/Filed)
470kts
Departed: 15-May-20 08:26 PM
Arrived: 15-May-20 09:07 PM
Distance/Time
Traveled:
197nm/0:41
Distance/Time
To Go:
Arrived

Flight Plot

Page will automatically refresh every two minutes.


Map Options




Map Legend


Flown Route
Filed Route
Departure Airport
Arrival Airport
Navaid (VOR, NDB)
Fix

Horizontal Profiles

Position Reports

Time Latitude Longitude Heading Altitude Ground
Speed
15-May-20 20:07 36.080313 -115.147275 61 2191ft 0kts
15-May-20 20:08 36.080313 -115.147275 61 2191ft 0kts
15-May-20 20:09 36.080313 -115.147275 61 2191ft 0kts
15-May-20 20:10 36.080313 -115.147275 61 2191ft 0kts
15-May-20 20:11 36.080313 -115.147275 61 2191ft 0kts
15-May-20 20:12 36.080313 -115.147275 61 2191ft 0kts
15-May-20 20:13 36.080313 -115.147275 61 2191ft 0kts
15-May-20 20:14 36.080241 -115.147610 91 2191ft 2kts
15-May-20 20:15 36.080536 -115.148215 153 2191ft 2kts
15-May-20 20:16 36.080753 -115.148328 154 2191ft 0kts
15-May-20 20:17 36.080753 -115.148328 154 2191ft 0kts
15-May-20 20:18 36.079780 -115.147783 155 2191ft 8kts
15-May-20 20:19 36.077738 -115.146357 98 2191ft 8kts
15-May-20 20:20 36.077534 -115.141669 90 2191ft 14kts
15-May-20 20:21 36.077534 -115.136080 90 2191ft 19kts
15-May-20 20:22 36.077542 -115.129936 89 2191ft 16kts
15-May-20 20:23 36.077546 -115.124125 90 2191ft 17kts
15-May-20 20:24 36.077454 -115.121558 130 2191ft 0kts
15-May-20 20:25 36.076431 -115.123675 269 2191ft 60kts
15-May-20 20:26 36.076580 -115.178912 269 3683ft 201kts
15-May-20 20:27 36.058581 -115.254026 223 5632ft 260kts
15-May-20 20:29 35.993081 -115.290068 201 9047ft 275kts
15-May-20 20:30 35.914813 -115.307551 186 11732ft 311kts
15-May-20 20:31 35.819138 -115.310335 176 13462ft 365kts
15-May-20 20:32 35.715888 -115.302049 189 16065ft 379kts
15-May-20 20:33 35.626555 -115.365193 229 18511ft 381kts
15-May-20 20:34 35.554025 -115.461958 231 20806ft 391kts
15-May-20 20:35 35.479800 -115.561760 231 22876ft 401kts
15-May-20 20:36 35.406614 -115.660418 231 24655ft 412kts
15-May-20 20:37 35.328022 -115.766163 231 26315ft 424kts
15-May-20 20:38 35.247183 -115.874650 231 27810ft 435kts
15-May-20 20:39 35.162282 -115.983728 229 27908ft 454kts
15-May-20 20:40 35.072680 -116.096208 229 27908ft 468kts
15-May-20 20:41 34.981894 -116.210182 229 27916ft 468kts
15-May-20 20:42 34.898578 -116.314359 230 27909ft 409kts
15-May-20 20:42 34.832393 -116.398036 230 27748ft 411kts
15-May-20 20:44 34.740754 -116.514602 230 25173ft 394kts
15-May-20 20:45 34.661775 -116.605482 223 24299ft 390kts
15-May-20 20:45 34.593027 -116.672952 222 23906ft 395kts
15-May-20 20:46 34.507912 -116.756600 224 23899ft 390kts
15-May-20 20:48 34.418268 -116.859386 227 21790ft 374kts
15-May-20 20:48 34.355981 -116.931668 226 18390ft 375kts
15-May-20 20:49 34.281493 -117.017413 225 14460ft 362kts
15-May-20 20:51 34.187933 -117.090688 212 13380ft 337kts
15-May-20 20:51 34.117263 -117.131684 205 12995ft 344kts
15-May-20 20:52 34.030113 -117.178226 206 12938ft 336kts
15-May-20 20:53 33.960458 -117.246615 230 11158ft 325kts
15-May-20 20:54 33.903764 -117.326322 231 10171ft 295kts
15-May-20 20:55 33.852423 -117.399009 230 8927ft 287kts
15-May-20 20:56 33.809315 -117.474753 249 7928ft 250kts
15-May-20 20:57 33.795079 -117.555177 272 7639ft 250kts
15-May-20 20:58 33.806923 -117.634780 300 7560ft 227kts
15-May-20 20:59 33.846182 -117.691311 321 6092ft 208kts
15-May-20 21:00 33.865593 -117.744297 226 3107ft 212kts
15-May-20 21:01 33.820992 -117.776634 208 3022ft 175kts
15-May-20 21:02 33.782252 -117.801232 208 2317ft 153kts
15-May-20 21:03 33.745101 -117.824841 207 1491ft 149kts
15-May-20 21:04 33.708591 -117.848002 207 688ft 147kts
15-May-20 21:05 33.673673 -117.870181 207 67ft 112kts
15-May-20 21:06 33.669170 -117.871602 122 66ft 0kts
15-May-20 21:07 33.669838 -117.870181 40 66ft 11kts
15-May-20 21:08 33.673611 -117.866793 28 66ft 15kts
15-May-20 21:09 33.675025 -117.865099 121 66ft 2kts

Navigation Log

Ident Type
Flight plan parsing failed, navigation log unavailable